createdAt,value
2018-02-05T00:00:28.609Z,124.30
2018-02-05T00:01:28.403Z,117.70
2018-02-05T00:02:28.649Z,112.60
2018-02-05T00:03:50.452Z,107.80
2018-02-05T00:04:50.838Z,115.10
2018-02-05T00:05:51.342Z,120.30
2018-02-05T00:06:50.855Z,124.80
2018-02-05T00:07:51.913Z,114.00
2018-02-05T00:08:51.522Z,114.30
2018-02-05T00:09:51.318Z,119.00
2018-02-05T00:10:50.813Z,107.10
2018-02-05T00:11:51.345Z,111.50
2018-02-05T00:12:51.195Z,98.60
2018-02-05T00:13:51.357Z,98.50
2018-02-05T00:14:51.109Z,90.10
2018-02-05T00:15:50.909Z,104.40
2018-02-05T00:16:51.231Z,100.60
2018-02-05T00:17:50.671Z,90.30
2018-02-05T00:18:51.505Z,89.90
2018-02-05T00:19:51.111Z,105.80
2018-02-05T00:20:50.868Z,101.50
2018-02-05T00:21:51.202Z,90.70
2018-02-05T00:22:51.474Z,91.30
2018-02-05T00:23:51.449Z,84.50
2018-02-05T00:24:50.768Z,89.30
2018-02-05T00:25:51.604Z,94.70
2018-02-05T00:27:13.884Z,87.60
2018-02-05T00:28:14.909Z,81.70
2018-02-05T00:29:36.981Z,81.80
2018-02-05T00:30:37.702Z,77.30
2018-02-05T00:31:37.563Z,83.00
2018-02-05T00:32:37.363Z,80.30
2018-02-05T00:33:37.616Z,78.00
2018-02-05T00:34:37.725Z,70.90
2018-02-05T00:35:37.619Z,79.70
2018-02-05T00:36:37.279Z,80.00
2018-02-05T00:37:38.083Z,81.90
2018-02-05T00:38:37.834Z,70.20
2018-02-05T00:39:37.753Z,77.00
2018-02-05T00:40:37.099Z,69.70
2018-02-05T00:41:37.706Z,71.90
2018-02-05T00:42:37.474Z,68.60
2018-02-05T00:43:37.976Z,71.10
2018-02-05T00:44:37.796Z,70.70
2018-02-05T00:45:37.482Z,66.40
2018-02-05T00:46:38.067Z,65.60
2018-02-05T00:47:37.499Z,65.00
2018-02-05T00:48:37.241Z,65.80
2018-02-05T00:49:59.981Z,71.20
2018-02-05T00:51:01.026Z,68.20
2018-02-05T00:52:00.642Z,68.70
2018-02-05T00:53:00.102Z,64.70
2018-02-05T00:54:00.695Z,66.80
2018-02-05T00:55:22.731Z,57.80
2018-02-05T00:56:23.239Z,75.60
2018-02-05T00:57:23.147Z,72.30
2018-02-05T00:58:45.143Z,58.80
2018-02-05T00:59:45.785Z,73.00
2018-02-05T01:00:46.231Z,63.70
2018-02-05T01:01:45.885Z,66.80
2018-02-05T01:02:45.612Z,63.90
2018-02-05T01:03:46.260Z,62.90
2018-02-05T01:04:45.780Z,65.10
2018-02-05T01:05:45.635Z,72.40
2018-02-05T01:06:46.399Z,68.10
2018-02-05T01:07:46.043Z,71.40
2018-02-05T01:08:45.796Z,69.70
2018-02-05T01:09:45.747Z,71.00
2018-02-05T01:11:07.692Z,70.20
2018-02-05T01:12:08.810Z,71.30
2018-02-05T01:13:08.548Z,68.10
2018-02-05T01:14:08.273Z,80.40
2018-02-05T01:15:08.118Z,66.50
2018-02-05T01:16:08.759Z,77.40
2018-02-05T01:17:08.747Z,75.50
2018-02-05T01:18:08.466Z,76.30
2018-02-05T01:19:08.036Z,86.80
2018-02-05T01:20:53.724Z,81.90
2018-02-05T01:21:54.325Z,87.30
2018-02-05T01:22:53.820Z,83.30
2018-02-05T01:23:54.263Z,87.60
2018-02-05T01:24:53.861Z,87.10
2018-02-05T01:25:54.113Z,80.40
2018-02-05T01:26:53.820Z,81.60
2018-02-05T01:27:54.515Z,88.10
2018-02-05T01:29:16.317Z,86.00
2018-02-05T01:30:17.211Z,85.80
2018-02-05T01:31:16.616Z,88.80
2018-02-05T01:32:17.418Z,89.90
2018-02-05T01:33:17.559Z,90.30
2018-02-05T01:34:17.159Z,89.50
2018-02-05T01:35:16.757Z,94.00
2018-02-05T01:36:17.277Z,90.40
2018-02-05T01:37:16.936Z,94.00
2018-02-05T01:38:39.893Z,100.60
2018-02-05T01:39:40.216Z,95.10
2018-02-05T01:40:40.960Z,89.60
2018-02-05T01:41:40.433Z,94.60
2018-02-05T01:42:40.690Z,95.40
2018-02-05T01:43:40.399Z,94.00
2018-02-05T01:44:41.184Z,102.90
2018-02-05T01:45:41.055Z,101.70
2018-02-05T01:46:40.725Z,93.20
2018-02-05T01:47:39.974Z,94.60
2018-02-05T01:48:40.464Z,92.90
2018-02-05T01:49:40.925Z,85.30
2018-02-05T01:50:40.347Z,96.90
2018-02-05T01:51:40.952Z,93.50
2018-02-05T01:53:03.448Z,97.30
2018-02-05T01:54:04.471Z,83.40
2018-02-05T01:55:03.936Z,89.90
2018-02-05T01:56:03.407Z,97.20
2018-02-05T01:57:03.998Z,91.70
2018-02-05T01:58:03.690Z,103.20
2018-02-05T01:59:04.602Z,97.80
2018-02-05T02:00:03.803Z,91.40
2018-02-05T02:01:25.539Z,89.70
2018-02-05T02:02:26.211Z,94.50
2018-02-05T02:03:25.663Z,89.00
2018-02-05T02:04:26.309Z,95.70
2018-02-05T02:05:25.689Z,95.30
2018-02-05T02:06:26.094Z,93.00
2018-02-05T02:07:25.374Z,87.90
2018-02-05T02:08:25.911Z,90.70
2018-02-05T02:09:26.592Z,90.50
2018-02-05T02:10:25.898Z,92.90
2018-02-05T02:11:26.460Z,94.90
2018-02-05T02:12:25.902Z,91.40
2018-02-05T02:13:26.234Z,95.90
2018-02-05T02:14:25.848Z,92.70
2018-02-05T02:15:26.251Z,95.90
2018-02-05T02:16:25.961Z,81.00
2018-02-05T02:17:26.442Z,92.10
2018-02-05T02:18:25.865Z,94.70
2018-02-05T02:19:25.455Z,88.60
2018-02-05T02:20:26.141Z,101.00
2018-02-05T02:21:25.368Z,95.90
2018-02-05T02:22:26.044Z,93.50
2018-02-05T02:23:26.366Z,106.80
2018-02-05T02:24:25.673Z,98.60
2018-02-05T02:25:26.383Z,97.80
2018-02-05T02:26:26.207Z,102.20
2018-02-05T02:27:25.765Z,91.40
2018-02-05T02:28:26.121Z,94.70
2018-02-05T02:29:25.866Z,103.00
2018-02-05T02:30:26.587Z,97.50
2018-02-05T02:31:26.135Z,94.60
2018-02-05T02:32:25.388Z,88.50
2018-02-05T02:33:25.881Z,89.10
2018-02-05T02:34:26.046Z,93.70
2018-02-05T02:35:25.443Z,81.80
2018-02-05T02:36:26.225Z,90.70
2018-02-05T02:37:26.058Z,94.50
2018-02-05T02:38:25.658Z,90.90
2018-02-05T02:39:25.908Z,90.50
2018-02-05T02:40:26.148Z,88.10
2018-02-05T02:41:25.363Z,91.00
2018-02-05T02:42:25.653Z,86.60
2018-02-05T02:43:25.817Z,93.30
2018-02-05T02:44:26.206Z,84.20
2018-02-05T02:45:25.469Z,82.10
2018-02-05T02:46:25.909Z,84.60
2018-02-05T02:47:25.287Z,80.40
2018-02-05T02:48:25.958Z,77.60
2018-02-05T02:49:25.670Z,84.60
2018-02-05T02:50:26.237Z,75.30
2018-02-05T02:51:25.573Z,64.10
2018-02-05T02:52:25.767Z,73.10
2018-02-05T02:53:26.190Z,67.70
2018-02-05T02:54:25.487Z,65.20
2018-02-05T02:55:25.725Z,64.70
2018-02-05T02:56:25.774Z,72.80
2018-02-05T02:57:25.910Z,64.60
2018-02-05T02:58:26.558Z,60.50
2018-02-05T02:59:25.932Z,57.10
2018-02-05T03:00:26.542Z,62.40
2018-02-05T03:01:25.780Z,53.10
2018-02-05T03:02:26.128Z,58.10
2018-02-05T03:03:25.262Z,57.40
2018-02-05T03:04:25.677Z,59.60
2018-02-05T03:05:25.929Z,59.40
2018-02-05T03:06:46.107Z,54.60
2018-02-05T03:07:46.391Z,54.90
2018-02-05T03:08:46.611Z,51.90
2018-02-05T03:10:08.002Z,52.70
2018-02-05T03:11:08.304Z,48.40
2018-02-05T03:12:08.480Z,53.70
2018-02-05T03:13:09.298Z,51.00
2018-02-05T03:14:08.740Z,51.60
2018-02-05T03:15:08.668Z,47.90
2018-02-05T03:16:09.385Z,49.40
2018-02-05T03:17:08.667Z,49.40
2018-02-05T03:18:08.829Z,52.00
2018-02-05T03:19:08.150Z,50.80
2018-02-05T03:20:09.496Z,44.70
2018-02-05T03:21:08.927Z,49.20
2018-02-05T03:22:08.523Z,41.90
2018-02-05T03:23:08.928Z,45.50
2018-02-05T03:24:08.449Z,42.80
2018-02-05T03:25:08.968Z,44.80
2018-02-05T03:26:08.343Z,46.50
2018-02-05T03:27:08.692Z,43.80
2018-02-05T03:28:09.093Z,39.90
2018-02-05T03:29:08.346Z,41.20
2018-02-05T03:30:08.635Z,40.80
2018-02-05T03:31:08.874Z,40.30
2018-02-05T03:32:08.113Z,36.00
2018-02-05T03:33:08.605Z,43.00
2018-02-05T03:34:08.749Z,39.00
2018-02-05T03:35:08.140Z,38.90
2018-02-05T03:36:08.758Z,35.10
2018-02-05T03:37:08.883Z,38.40
2018-02-05T03:38:29.371Z,37.60
2018-02-05T03:39:29.585Z,34.80
2018-02-05T03:40:30.016Z,37.10
2018-02-05T03:41:29.751Z,33.50
2018-02-05T03:42:30.093Z,35.60
2018-02-05T03:43:29.535Z,35.80
2018-02-05T03:44:29.620Z,36.60
2018-02-05T03:45:30.054Z,31.60
2018-02-05T03:46:29.336Z,29.90
2018-02-05T03:47:29.853Z,36.80
2018-02-05T03:48:30.156Z,32.70
2018-02-05T03:49:29.796Z,34.10
2018-02-05T03:50:30.391Z,33.30
2018-02-05T03:51:30.012Z,31.10
2018-02-05T03:52:29.382Z,34.20
2018-02-05T03:53:30.045Z,32.80
2018-02-05T03:54:29.370Z,33.30
2018-02-05T03:55:29.784Z,36.70
2018-02-05T03:56:30.765Z,32.70
2018-02-05T03:57:30.093Z,30.80
2018-02-05T03:58:29.402Z,29.80
2018-02-05T03:59:29.826Z,32.90
2018-02-05T04:00:52.343Z,28.10
2018-02-05T04:01:52.993Z,31.00
2018-02-05T04:02:52.745Z,32.30
2018-02-05T04:03:53.008Z,28.70
2018-02-05T04:04:52.306Z,33.40
2018-02-05T04:05:52.522Z,28.70
2018-02-05T04:06:52.888Z,26.40
2018-02-05T04:07:52.358Z,26.70
2018-02-05T04:08:52.821Z,31.20
2018-02-05T04:09:52.088Z,28.50
2018-02-05T04:10:52.387Z,34.40
2018-02-05T04:11:53.101Z,28.00
2018-02-05T04:12:52.459Z,25.60
2018-02-05T04:13:52.830Z,28.80
2018-02-05T04:14:52.297Z,28.20
2018-02-05T04:15:52.575Z,27.60
2018-02-05T04:16:52.997Z,26.40
2018-02-05T04:17:52.245Z,27.70
2018-02-05T04:18:52.360Z,26.70
2018-02-05T04:19:52.564Z,25.30
2018-02-05T04:20:52.994Z,26.60
2018-02-05T04:21:52.193Z,26.70
2018-02-05T04:22:53.260Z,30.80
2018-02-05T04:23:53.579Z,26.00
2018-02-05T04:24:53.119Z,25.70
2018-02-05T04:25:52.491Z,32.40
2018-02-05T04:26:52.853Z,31.70
2018-02-05T04:27:52.226Z,27.60
2018-02-05T04:28:52.666Z,28.40
2018-02-05T04:29:52.951Z,28.10
2018-02-05T04:30:52.305Z,29.10
2018-02-05T04:31:52.992Z,32.10
2018-02-05T04:32:52.335Z,26.30
2018-02-05T04:33:52.872Z,32.80
2018-02-05T04:34:52.530Z,31.30
2018-02-05T04:35:52.053Z,23.80
2018-02-05T04:36:52.357Z,30.00
2018-02-05T04:37:52.506Z,26.30
2018-02-05T04:38:52.942Z,26.70
2018-02-05T04:39:52.058Z,23.90
2018-02-05T04:40:52.212Z,28.10
2018-02-05T04:41:52.630Z,24.80
2018-02-05T04:42:52.259Z,22.30
2018-02-05T04:44:13.609Z,24.30
2018-02-05T04:46:25.542Z,27.10
2018-02-05T04:47:26.110Z,27.10
2018-02-05T04:48:26.429Z,24.10
2018-02-05T04:49:26.237Z,25.80
2018-02-05T04:50:25.822Z,26.70
2018-02-05T04:51:25.932Z,30.80
2018-02-05T04:52:26.465Z,24.90
2018-02-05T04:53:25.965Z,24.80
2018-02-05T04:55:10.055Z,24.50
2018-02-05T04:56:10.785Z,22.90
2018-02-05T04:57:10.361Z,25.00
2018-02-05T04:58:10.137Z,26.50
2018-02-05T04:59:10.602Z,26.50
2018-02-05T05:00:31.101Z,24.10
2018-02-05T05:01:31.503Z,27.30
2018-02-05T05:02:53.235Z,27.20
2018-02-05T05:03:53.421Z,24.50
2018-02-05T05:04:53.159Z,28.50
2018-02-05T05:05:53.873Z,25.30
2018-02-05T05:06:53.135Z,23.90
2018-02-05T05:07:53.781Z,24.60
2018-02-05T05:08:53.381Z,22.60
2018-02-05T05:09:53.736Z,25.80
2018-02-05T05:10:53.416Z,22.90
2018-02-05T05:11:53.970Z,21.60
2018-02-05T05:12:53.390Z,22.30
2018-02-05T05:13:53.833Z,20.70
2018-02-05T05:14:53.288Z,19.80
2018-02-05T05:15:53.566Z,25.80
2018-02-05T05:16:53.014Z,22.70
2018-02-05T05:17:53.818Z,22.10
2018-02-05T05:18:53.211Z,23.70
2018-02-05T05:19:53.793Z,22.90
2018-02-05T05:20:53.209Z,25.70
2018-02-05T05:21:53.452Z,25.70
2018-02-05T05:22:53.058Z,20.80
2018-02-05T05:23:53.611Z,21.40
2018-02-05T05:24:52.909Z,22.30
2018-02-05T05:25:53.233Z,23.50
2018-02-05T05:26:53.823Z,22.70
2018-02-05T05:27:53.299Z,21.70
2018-02-05T05:28:54.118Z,24.90
2018-02-05T05:29:53.714Z,22.20
2018-02-05T05:30:53.260Z,18.70
2018-02-05T05:31:55.494Z,23.70
2018-02-05T05:32:53.498Z,21.60
2018-02-05T05:33:54.526Z,24.70
2018-02-05T05:34:53.064Z,21.70
2018-02-05T05:35:56.652Z,18.60
2018-02-05T05:36:53.329Z,18.50
2018-02-05T05:37:55.407Z,20.00
2018-02-05T05:38:54.322Z,22.80
2018-02-05T05:39:55.798Z,21.80
2018-02-05T05:40:53.171Z,21.80
2018-02-05T05:41:53.740Z,26.20
2018-02-05T05:42:54.012Z,21.00
2018-02-05T05:43:55.157Z,20.20
2018-02-05T05:44:53.581Z,24.50
2018-02-05T05:45:53.129Z,23.90
2018-02-05T05:46:54.519Z,23.60
2018-02-05T05:47:55.435Z,27.00
2018-02-05T05:48:55.787Z,23.80
2018-02-05T05:49:54.841Z,23.50
2018-02-05T05:50:53.335Z,26.80
2018-02-05T05:51:56.206Z,28.90
2018-02-05T05:52:55.357Z,25.80
2018-02-05T05:53:53.956Z,26.90
2018-02-05T05:54:55.072Z,23.50
2018-02-05T05:55:55.031Z,23.60
2018-02-05T05:56:53.899Z,27.00
2018-02-05T05:57:55.063Z,27.40
2018-02-05T05:58:54.585Z,25.30
2018-02-05T05:59:53.838Z,26.50
2018-02-05T06:00:53.608Z,24.50
2018-02-05T06:01:55.347Z,23.50
2018-02-05T06:02:54.062Z,24.60
2018-02-05T06:03:55.025Z,24.60
2018-02-05T06:04:54.355Z,29.30
2018-02-05T06:05:54.498Z,22.50
2018-02-05T06:06:53.571Z,27.40
2018-02-05T06:07:53.434Z,25.00
2018-02-05T06:08:54.915Z,24.70
2018-02-05T06:09:53.400Z,25.00
2018-02-05T06:10:54.014Z,24.10
2018-02-05T06:11:53.800Z,25.90
2018-02-05T06:12:53.566Z,24.30
2018-02-05T06:13:53.601Z,24.10
2018-02-05T06:14:53.074Z,23.80
2018-02-05T06:15:53.246Z,20.90
2018-02-05T06:16:53.747Z,23.20
2018-02-05T06:17:53.157Z,24.70
2018-02-05T06:18:53.797Z,23.70
2018-02-05T06:19:53.720Z,24.40
2018-02-05T06:20:53.666Z,26.70
2018-02-05T06:21:53.227Z,23.60
2018-02-05T06:22:53.766Z,25.50
2018-02-05T06:23:53.647Z,24.20
2018-02-05T06:24:53.592Z,23.80
2018-02-05T06:25:52.793Z,21.80
2018-02-05T06:26:53.283Z,24.00
2018-02-05T06:27:54.048Z,24.50
2018-02-05T06:28:53.628Z,23.20
2018-02-05T06:29:52.663Z,20.90
2018-02-05T06:30:53.378Z,22.00
2018-02-05T06:31:53.949Z,23.00
2018-02-05T06:32:53.603Z,26.50
2018-02-05T06:33:53.052Z,25.70
2018-02-05T06:34:53.757Z,22.90
2018-02-05T06:35:53.330Z,21.40
2018-02-05T06:36:53.935Z,20.90
2018-02-05T06:37:53.433Z,23.10
2018-02-05T06:38:53.086Z,21.30
2018-02-05T06:39:53.474Z,21.40
2018-02-05T06:40:52.730Z,24.90
2018-02-05T06:41:53.314Z,24.10
2018-02-05T06:42:53.482Z,24.00
2018-02-05T06:43:52.746Z,22.30
2018-02-05T06:44:53.312Z,20.20
2018-02-05T06:45:53.885Z,23.60
2018-02-05T06:46:53.423Z,20.70
2018-02-05T06:47:53.065Z,24.00
2018-02-05T06:48:53.263Z,24.10
2018-02-05T06:49:53.758Z,26.50
2018-02-05T06:50:53.272Z,24.40
2018-02-05T06:51:53.383Z,22.70
2018-02-05T06:52:53.853Z,25.10
2018-02-05T06:53:53.484Z,24.10
2018-02-05T06:54:52.970Z,24.20
2018-02-05T06:55:53.434Z,29.20
2018-02-05T06:56:53.872Z,28.40
2018-02-05T06:57:53.178Z,23.30
2018-02-05T06:58:53.786Z,28.80
2018-02-05T06:59:53.348Z,22.40
2018-02-05T07:00:53.818Z,32.80
2018-02-05T07:01:53.492Z,31.00
2018-02-05T07:02:53.830Z,24.70
2018-02-05T07:03:53.539Z,24.10
2018-02-05T07:04:52.875Z,27.40
2018-02-05T07:05:53.496Z,26.60
2018-02-05T07:06:53.024Z,25.80
2018-02-05T07:07:53.585Z,26.30
2018-02-05T07:08:52.833Z,26.10
2018-02-05T07:09:53.374Z,26.60
2018-02-05T07:10:53.923Z,25.40
2018-02-05T07:11:53.603Z,29.10
2018-02-05T07:12:53.094Z,26.90
2018-02-05T07:13:53.777Z,28.10
2018-02-05T07:14:53.530Z,31.10
2018-02-05T07:15:53.169Z,28.20
2018-02-05T07:16:53.825Z,26.90
2018-02-05T07:17:53.503Z,28.60
2018-02-05T07:18:52.807Z,25.50
2018-02-05T07:19:53.314Z,25.60
2018-02-05T07:20:53.785Z,28.70
2018-02-05T07:21:53.192Z,31.60
2018-02-05T07:22:53.843Z,28.90
2018-02-05T07:23:53.629Z,24.10
2018-02-05T07:24:53.335Z,25.20
2018-02-05T07:25:53.834Z,26.50
2018-02-05T07:26:53.546Z,22.30
2018-02-05T07:27:52.833Z,28.70
2018-02-05T07:28:53.212Z,23.90
2018-02-05T07:29:53.806Z,24.40
2018-02-05T07:30:53.277Z,21.60
2018-02-05T07:31:53.582Z,22.80
2018-02-05T07:32:53.001Z,23.30
2018-02-05T07:33:53.499Z,25.00
2018-02-05T07:35:13.738Z,22.80
2018-02-05T07:36:14.128Z,21.60
2018-02-05T07:37:14.277Z,24.20
2018-02-05T07:38:36.477Z,20.90
2018-02-05T07:39:36.780Z,19.50
2018-02-05T07:40:36.098Z,22.80
2018-02-05T07:41:37.044Z,21.60
2018-02-05T07:43:41.973Z,22.90
2018-02-05T07:44:42.833Z,21.20
2018-02-05T07:45:42.054Z,21.10
2018-02-05T07:46:42.672Z,18.10
2018-02-05T07:47:42.364Z,19.90
2018-02-05T07:48:41.814Z,22.70
2018-02-05T07:49:42.272Z,18.10
2018-02-05T07:50:42.593Z,20.80
2018-02-05T07:51:42.395Z,18.00
2018-02-05T07:52:41.780Z,21.60
2018-02-05T07:53:42.454Z,18.20
2018-02-05T07:54:44.386Z,21.20
2018-02-05T07:55:42.196Z,19.40
2018-02-05T07:56:42.967Z,20.40
2018-02-05T07:57:42.934Z,19.60
2018-02-05T07:58:42.889Z,25.00
2018-02-05T07:59:42.760Z,21.10
2018-02-05T08:00:42.146Z,21.20
2018-02-05T08:01:42.915Z,19.20
2018-02-05T08:02:42.820Z,18.90
2018-02-05T08:04:04.780Z,17.50
2018-02-05T08:05:05.128Z,18.50
2018-02-05T08:06:05.583Z,19.00
2018-02-05T08:07:04.817Z,20.60
2018-02-05T08:08:05.208Z,19.00
2018-02-05T08:09:05.728Z,16.20
2018-02-05T08:10:05.570Z,17.60
2018-02-05T08:11:05.300Z,18.70
2018-02-05T08:12:26.614Z,17.20
2018-02-05T08:13:27.437Z,17.60
2018-02-05T08:14:27.268Z,20.20
2018-02-05T08:15:26.701Z,21.00
2018-02-05T08:16:28.016Z,18.70
2018-02-05T08:17:27.556Z,19.30
2018-02-05T08:18:27.014Z,22.60
2018-02-05T08:19:27.301Z,23.10
2018-02-05T08:20:27.126Z,19.70
2018-02-05T08:21:27.401Z,17.80
2018-02-05T08:22:27.139Z,19.00
2018-02-05T08:23:27.640Z,19.90
2018-02-05T08:24:27.402Z,20.20
2018-02-05T08:25:27.107Z,18.00
2018-02-05T08:26:27.421Z,20.90
2018-02-05T08:27:28.567Z,16.80
2018-02-05T08:28:27.369Z,19.20
2018-02-05T08:29:27.130Z,19.30
2018-02-05T08:30:27.509Z,16.30
2018-02-05T08:31:27.394Z,20.70
2018-02-05T08:32:26.976Z,18.40
2018-02-05T08:33:27.561Z,20.00
2018-02-05T08:34:26.826Z,18.00
2018-02-05T08:35:27.493Z,16.50
2018-02-05T08:36:27.280Z,18.10
2018-02-05T08:37:27.190Z,17.60
2018-02-05T08:38:26.709Z,17.10
2018-02-05T08:39:27.504Z,18.70
2018-02-05T08:40:26.949Z,18.90
2018-02-05T08:41:27.700Z,18.30
2018-02-05T08:42:27.638Z,17.60
2018-02-05T08:43:28.049Z,23.50
2018-02-05T08:44:27.535Z,20.50
2018-02-05T08:45:27.425Z,18.90
2018-02-05T08:46:49.911Z,22.60
2018-02-05T08:47:50.915Z,19.30
2018-02-05T08:48:50.677Z,18.30
2018-02-05T08:49:50.084Z,18.00
2018-02-05T08:50:50.476Z,18.40
2018-02-05T08:51:51.246Z,19.60
2018-02-05T08:53:35.146Z,19.70
2018-02-05T08:54:36.141Z,19.20
2018-02-05T08:55:35.943Z,20.50
2018-02-05T08:56:35.864Z,20.70
2018-02-05T08:57:35.794Z,18.20
2018-02-05T08:58:35.236Z,21.00
2018-02-05T08:59:35.601Z,21.70
2018-02-05T09:00:35.679Z,21.90
2018-02-05T09:01:35.180Z,19.40
2018-02-05T09:02:35.935Z,20.80
2018-02-05T09:03:35.880Z,22.40
2018-02-05T09:04:35.861Z,18.70
2018-02-05T09:05:57.909Z,21.60
2018-02-05T09:06:58.737Z,22.40
2018-02-05T09:07:58.718Z,23.30
2018-02-05T09:09:21.119Z,21.40
2018-02-05T09:10:21.913Z,23.40
2018-02-05T09:11:21.568Z,20.60
2018-02-05T09:12:21.280Z,25.20
2018-02-05T09:13:20.691Z,20.40
2018-02-05T09:14:43.989Z,22.60
2018-02-05T09:15:44.402Z,22.10
2018-02-05T09:16:44.239Z,21.50
2018-02-05T09:17:45.061Z,24.20
2018-02-05T09:18:44.808Z,22.70
2018-02-05T09:19:44.827Z,22.40
2018-02-05T09:21:07.431Z,24.40
2018-02-05T09:22:07.777Z,22.40
2018-02-05T09:23:08.533Z,22.50
2018-02-05T09:24:08.025Z,22.30
2018-02-05T09:25:08.440Z,22.90
2018-02-05T09:26:08.283Z,23.20
2018-02-05T09:27:07.762Z,23.60
2018-02-05T09:28:08.730Z,23.90
2018-02-05T09:29:08.363Z,22.60
2018-02-05T09:30:08.248Z,25.20
2018-02-05T09:31:08.116Z,24.20
2018-02-05T09:32:30.484Z,23.60
2018-02-05T09:33:30.969Z,21.80
2018-02-05T09:34:30.936Z,25.30
2018-02-05T09:35:30.361Z,24.70
2018-02-05T09:36:31.270Z,24.90
2018-02-05T09:37:31.121Z,25.30
2018-02-05T09:38:30.443Z,24.60
2018-02-05T09:39:31.001Z,27.10
2018-02-05T09:40:30.562Z,24.00
2018-02-05T09:41:31.308Z,23.90
2018-02-05T09:42:31.325Z,22.90
2018-02-05T09:43:30.898Z,26.00
2018-02-05T09:44:52.778Z,26.90
2018-02-05T09:45:53.930Z,27.70
2018-02-05T09:46:53.653Z,26.20
2018-02-05T09:47:53.143Z,29.70
2018-02-05T09:48:53.903Z,25.00
2018-02-05T09:49:53.327Z,25.20
2018-02-05T09:51:15.230Z,25.40
2018-02-05T09:52:15.895Z,26.50
2018-02-05T09:53:15.602Z,27.90
2018-02-05T09:54:15.137Z,26.70
2018-02-05T09:55:16.139Z,28.70
2018-02-05T09:56:15.653Z,27.60
2018-02-05T09:57:15.542Z,28.50
2018-02-05T09:58:15.046Z,28.00
2018-02-05T09:59:16.224Z,29.00
2018-02-05T10:00:15.740Z,27.20
2018-02-05T10:01:15.286Z,28.50
2018-02-05T10:02:37.422Z,27.30
2018-02-05T10:03:37.069Z,25.60
2018-02-05T10:04:37.681Z,31.40
2018-02-05T10:05:37.252Z,30.40
2018-02-05T10:06:58.889Z,28.20
2018-02-05T10:07:59.908Z,28.70
2018-02-05T10:08:59.645Z,29.00
2018-02-05T10:09:59.215Z,30.10
2018-02-05T10:11:00.156Z,23.60
2018-02-05T10:12:00.907Z,26.60
2018-02-05T10:12:59.650Z,27.30
2018-02-05T10:14:00.017Z,32.40
2018-02-05T10:14:59.325Z,28.50
2018-02-05T10:15:59.728Z,27.70
2018-02-05T10:16:59.114Z,28.30
2018-02-05T10:17:59.878Z,24.90
2018-02-05T10:18:59.408Z,21.40
2018-02-05T10:19:59.993Z,23.40
2018-02-05T10:20:59.275Z,24.30
2018-02-05T10:21:59.475Z,25.10
2018-02-05T10:22:59.854Z,22.00
2018-02-05T10:23:59.537Z,23.60
2018-02-05T10:24:59.368Z,23.10
2018-02-05T10:25:59.711Z,25.10
2018-02-05T10:26:59.737Z,25.90
2018-02-05T10:27:59.362Z,24.40
2018-02-05T10:28:59.718Z,25.10
2018-02-05T10:30:21.883Z,27.50
2018-02-05T10:31:22.696Z,23.80
2018-02-05T10:32:22.639Z,23.90
2018-02-05T10:33:22.563Z,23.80
2018-02-05T10:34:21.891Z,23.10
2018-02-05T10:35:21.712Z,22.70
2018-02-05T10:36:22.489Z,24.50
2018-02-05T10:37:22.062Z,22.60
2018-02-05T10:38:21.854Z,25.90
2018-02-05T10:39:22.455Z,22.50
2018-02-05T10:40:22.111Z,25.60
2018-02-05T10:41:22.084Z,24.60
2018-02-05T10:42:22.136Z,22.90
2018-02-05T10:43:21.543Z,22.90
2018-02-05T10:44:22.293Z,21.60
2018-02-05T10:45:22.090Z,20.40
2018-02-05T10:46:21.861Z,22.70
2018-02-05T10:47:22.716Z,22.20
2018-02-05T10:48:22.563Z,21.60
2018-02-05T10:49:22.015Z,22.80
2018-02-05T10:50:22.406Z,22.80
2018-02-05T10:51:21.957Z,22.20
2018-02-05T10:52:22.297Z,21.60
2018-02-05T10:53:43.330Z,23.40
2018-02-05T10:54:43.917Z,22.10
2018-02-05T10:55:43.268Z,24.20
2018-02-05T10:56:44.057Z,25.40
2018-02-05T10:57:44.025Z,26.90
2018-02-05T10:58:43.410Z,23.20
2018-02-05T10:59:43.437Z,23.40
2018-02-05T11:00:44.377Z,25.10
2018-02-05T11:02:04.871Z,22.70
2018-02-05T11:03:05.553Z,21.00
2018-02-05T11:04:05.081Z,23.00
2018-02-05T11:05:05.535Z,24.00
2018-02-05T11:06:05.033Z,22.90
2018-02-05T11:07:05.432Z,20.70
2018-02-05T11:08:05.041Z,21.80
2018-02-05T11:09:05.896Z,24.60
2018-02-05T11:10:05.721Z,22.70
2018-02-05T11:11:05.257Z,21.30
2018-02-05T11:12:04.819Z,22.00
2018-02-05T11:13:05.530Z,21.40
2018-02-05T11:14:05.348Z,20.30
2018-02-05T11:15:05.012Z,23.80
2018-02-05T11:16:05.830Z,22.30
2018-02-05T11:17:05.710Z,19.90
2018-02-05T11:18:05.561Z,23.10
2018-02-05T11:19:05.662Z,23.80
2018-02-05T11:20:05.398Z,19.10
2018-02-05T11:21:05.193Z,22.00
2018-02-05T11:22:05.654Z,20.30
2018-02-05T11:23:27.234Z,22.60
2018-02-05T11:24:28.159Z,20.60
2018-02-05T11:25:27.674Z,20.70
2018-02-05T11:26:27.539Z,19.20
2018-02-05T11:27:27.417Z,20.90
2018-02-05T11:28:28.148Z,22.20
2018-02-05T11:29:28.084Z,18.60
2018-02-05T11:30:27.665Z,24.80
2018-02-05T11:31:27.651Z,21.90
2018-02-05T11:32:27.328Z,20.40
2018-02-05T11:33:26.801Z,22.00
2018-02-05T11:34:48.997Z,20.50
2018-02-05T11:35:49.908Z,23.50
2018-02-05T11:37:11.148Z,20.60
2018-02-05T11:38:11.885Z,24.10
2018-02-05T11:39:12.655Z,22.80
2018-02-05T11:40:32.793Z,23.10
2018-02-05T11:41:33.378Z,23.00
2018-02-05T11:42:32.726Z,23.10
2018-02-05T11:43:33.283Z,22.50
2018-02-05T11:44:33.848Z,26.40
2018-02-05T11:45:33.323Z,22.00
2018-02-05T11:46:34.169Z,21.40
2018-02-05T11:47:34.005Z,21.30
2018-02-05T11:48:55.485Z,21.30
2018-02-05T11:49:56.146Z,22.00
2018-02-05T11:50:56.122Z,25.70
2018-02-05T11:51:55.678Z,23.40
2018-02-05T11:52:56.010Z,26.40
2018-02-05T11:53:55.781Z,21.90
2018-02-05T11:54:55.706Z,22.10
2018-02-05T11:55:55.436Z,25.80
2018-02-05T11:56:56.055Z,19.80
2018-02-05T11:57:56.457Z,20.20
2018-02-05T11:58:56.015Z,19.30
2018-02-05T11:59:55.952Z,23.60
2018-02-05T12:00:55.838Z,20.60
2018-02-05T12:01:55.773Z,21.30
2018-02-05T12:02:55.595Z,22.90
2018-02-05T12:03:55.586Z,23.20
2018-02-05T12:04:55.497Z,20.50
2018-02-05T12:05:56.292Z,20.20
2018-02-05T12:07:17.301Z,25.20
2018-02-05T12:08:17.979Z,22.30
2018-02-05T12:09:17.794Z,23.80
2018-02-05T12:10:17.836Z,20.70
2018-02-05T12:11:17.752Z,19.80
2018-02-05T12:12:17.354Z,22.10
2018-02-05T12:13:17.808Z,22.40
2018-02-05T12:14:17.642Z,20.90
2018-02-05T12:15:17.616Z,25.80
2018-02-05T12:16:17.019Z,20.20
2018-02-05T12:17:18.477Z,22.80
2018-02-05T12:18:17.008Z,23.00
2018-02-05T12:19:17.821Z,19.50
2018-02-05T12:20:17.887Z,19.40
2018-02-05T12:21:17.841Z,21.80
2018-02-05T12:22:17.521Z,20.10
2018-02-05T12:23:39.951Z,20.20
2018-02-05T12:24:40.253Z,19.40
2018-02-05T12:25:39.740Z,21.70
2018-02-05T12:27:01.890Z,20.90
2018-02-05T12:28:02.804Z,22.00
2018-02-05T12:29:02.586Z,23.60
2018-02-05T12:30:02.174Z,20.30
2018-02-05T12:31:02.022Z,20.80
2018-02-05T12:32:01.594Z,22.00
2018-02-05T12:33:02.519Z,19.50
2018-02-05T12:34:23.483Z,19.10
2018-02-05T12:35:24.014Z,21.50
2018-02-05T12:36:23.740Z,21.40
2018-02-05T12:37:24.146Z,22.40
2018-02-05T12:38:45.405Z,20.50
2018-02-05T12:39:46.383Z,21.00
2018-02-05T12:40:46.344Z,20.10
2018-02-05T12:41:46.277Z,22.40
2018-02-05T12:42:46.807Z,19.00
2018-02-05T12:43:45.659Z,17.50
2018-02-05T12:44:45.540Z,19.60
2018-02-05T12:45:45.220Z,20.10
2018-02-05T12:46:45.946Z,28.00
2018-02-05T12:47:45.655Z,22.60
2018-02-05T12:48:45.437Z,21.40
2018-02-05T12:49:46.250Z,23.40
2018-02-05T12:50:46.289Z,20.10
2018-02-05T12:51:46.213Z,20.40
2018-02-05T12:52:46.091Z,20.10
2018-02-05T12:53:46.155Z,18.30
2018-02-05T12:54:45.965Z,20.40
2018-02-05T12:55:45.733Z,20.40
2018-02-05T12:56:45.259Z,18.20
2018-02-05T12:57:46.132Z,20.70
2018-02-05T12:58:45.754Z,19.20
2018-02-05T12:59:45.646Z,19.00
2018-02-05T13:00:45.442Z,19.40
2018-02-05T13:02:07.758Z,21.00
2018-02-05T13:03:08.510Z,20.60
2018-02-05T13:04:07.943Z,22.10
2018-02-05T13:05:08.585Z,19.90
2018-02-05T13:06:08.127Z,18.10
2018-02-05T13:07:08.634Z,18.10
2018-02-05T13:08:08.140Z,18.90
2018-02-05T13:09:08.089Z,18.30
2018-02-05T13:10:07.992Z,20.40
2018-02-05T13:11:09.863Z,23.80
2018-02-05T13:12:08.785Z,21.30
2018-02-05T13:13:08.654Z,20.60